Darstellungsparameter: Aktuell verwendete Einstellungen:
Skalierung der Graphiken ... ?
xyx+y,   Skalierungsfaktor:      Skalierung: Modus: x, Faktor: 1
Darstellungszeitraum ... ?
Vom - - bis: - -   Zeitraum: 04.12.2016 - 04.12.2016
Min/Max/Avg-Anzeige ... ?
Zeige MMA aktuell
Zeige MMA Monat
Zeige MMA alles
Zeige --A aktuell
Zeige --A Monat
Zeige --A alles
Keine MMA-Anzeige
MMA:
Keine MMA-Graphiken
MMA-Basis: 04.12.2016 - 04.12.2016
Quicknavigation für Darstellung... ?
Tage:      1T, 2T, 3T, 5T -1T -2T -3T -5T +1T +2T +3T +5T
Wochen: 1W, 2W, 3W -1W -2W -3W +1W +2W +3W
Monate: 1M, 3M, 6M -1M -3M -6M +1M +3M +6M
Jahre:    1J, 3J, 5J, 10J -1J -3J -5J -10J +1J +3J +5J +10J
Nutze für die Darstellung ... ?
Originaldaten oder Mittelwerte auf ...
Stundenbasis Tagesbasis Wochenbasis
Monatsbasis Jahresbasis      Datenbasis: Original-Daten
Darstellen als:
Statistik (Auto) Statistik J:M      Darstellung:
Zur Graphik,    zurück zur Übersicht aller Sensoren.
 
Tabellarische Datenbersicht: ?
 
Sensor: Nr:Datum:Temp:Abs-Feuchte:Windchill:Wind:
Aussen-T/F 1 04-12-2016 00:00:00 -1.7 C 4.18 g/m*3 -1.7 C 1.6 km/h
2 04-12-2016 00:05:00 -1.7 C 4.18 g/m*3 -1.7 C 1.6 km/h
3 04-12-2016 00:10:00 -1.8 C 4.15 g/m*3 -1.8 C 1.6 km/h
4 04-12-2016 00:15:00 -1.9 C 4.12 g/m*3 -1.9 C 0 km/h
5 04-12-2016 00:20:00 -2.1 C 4.06 g/m*3 -2.1 C 0 km/h
6 04-12-2016 00:25:00 -2.2 C 4.03 g/m*3 -2.2 C 0 km/h
7 04-12-2016 00:30:00 -2.3 C 4 g/m*3 -2.3 C 1.6 km/h
8 04-12-2016 00:35:00 -2.3 C 4 g/m*3 -2.3 C 1.6 km/h
9 04-12-2016 00:40:00 -2.3 C 4 g/m*3 -2.3 C 0 km/h
10 04-12-2016 00:45:00 -2.2 C 4.03 g/m*3 -2.2 C 0 km/h
11 04-12-2016 00:50:00 -2.2 C 4.03 g/m*3 -2.2 C 0 km/h
12 04-12-2016 00:55:00 -2.1 C 4.06 g/m*3 -2.1 C 0 km/h
13 04-12-2016 01:00:00 -1.9 C 4.12 g/m*3 -1.9 C 0 km/h
14 04-12-2016 01:05:00 -1.8 C 4.15 g/m*3 -1.8 C 0 km/h
15 04-12-2016 01:10:00 -1.8 C 4.15 g/m*3 -1.8 C 0 km/h
16 04-12-2016 01:15:00 -1.8 C 4.15 g/m*3 -1.8 C 0 km/h
17 04-12-2016 01:20:00 -1.9 C 4.12 g/m*3 -1.9 C 0 km/h
18 04-12-2016 01:25:00 -1.9 C 4.12 g/m*3 -1.9 C 0 km/h
19 04-12-2016 01:30:00 -2 C 4.09 g/m*3 -2 C 0 km/h
20 04-12-2016 01:35:00 -2.2 C 4.03 g/m*3 -2.2 C 0 km/h
21 04-12-2016 01:40:00 -2.3 C 4 g/m*3 -2.3 C 0 km/h
22 04-12-2016 01:45:00 -2.4 C 3.98 g/m*3 -2.4 C 0 km/h
23 04-12-2016 01:50:00 -2.6 C 3.88 g/m*3 -2.6 C 0 km/h
24 04-12-2016 01:55:00 -2.7 C 3.85 g/m*3 -2.7 C 0 km/h
25 04-12-2016 02:00:00 -2.8 C 3.82 g/m*3 -2.8 C 0 km/h
Sensor: Nr:Datum:Temp:Abs-Feuchte:Windchill:Wind:
Aussen-T/F 26 04-12-2016 02:05:00 -2.8 C 3.82 g/m*3 -2.8 C 1.6 km/h
27 04-12-2016 02:10:00 -2.9 C 3.8 g/m*3 -2.9 C 0 km/h
28 04-12-2016 02:15:00 -3 C 3.77 g/m*3 -3 C 0 km/h
29 04-12-2016 02:20:00 -3.1 C 3.74 g/m*3 -3.1 C 0 km/h
30 04-12-2016 02:25:00 -3.2 C 3.72 g/m*3 -3.2 C 0 km/h
31 04-12-2016 02:30:00 -3.2 C 3.72 g/m*3 -3.2 C 0 km/h
32 04-12-2016 02:35:00 -3.2 C 3.72 g/m*3 -3.2 C 0 km/h
33 04-12-2016 02:40:00 -3.3 C 3.69 g/m*3 -3.3 C 0 km/h
34 04-12-2016 02:45:00 -3.3 C 3.69 g/m*3 -3.3 C 0 km/h
35 04-12-2016 02:50:00 -3.3 C 3.69 g/m*3 -3.3 C 0 km/h
36 04-12-2016 02:55:00 -3.3 C 3.69 g/m*3 -3.3 C 0 km/h
37 04-12-2016 03:00:00 -3.3 C 3.69 g/m*3 -3.3 C 0 km/h
38 04-12-2016 03:05:00 -3.2 C 3.72 g/m*3 -3.2 C 0 km/h
39 04-12-2016 03:10:00 -3.1 C 3.74 g/m*3 -3.1 C 0 km/h
40 04-12-2016 03:15:00 -3 C 3.77 g/m*3 -3 C 0 km/h
41 04-12-2016 03:20:00 -2.9 C 3.8 g/m*3 -2.9 C 0 km/h
42 04-12-2016 03:25:00 -2.8 C 3.82 g/m*3 -2.8 C 0 km/h
43 04-12-2016 03:30:00 -2.7 C 3.89 g/m*3 -2.7 C 1.6 km/h
44 04-12-2016 03:35:00 -2.7 C 3.89 g/m*3 -2.7 C 0 km/h
45 04-12-2016 03:40:00 -2.7 C 3.89 g/m*3 -2.7 C 0 km/h
46 04-12-2016 03:45:00 -2.7 C 3.85 g/m*3 -2.7 C 0 km/h
47 04-12-2016 03:50:00 -2.6 C 3.88 g/m*3 -2.6 C 0 km/h
48 04-12-2016 03:55:00 -2.6 C 3.88 g/m*3 -2.6 C 0 km/h
49 04-12-2016 04:00:00 -2.6 C 3.88 g/m*3 -2.6 C 0 km/h
50 04-12-2016 04:05:00 -2.6 C 3.92 g/m*3 -2.6 C 0 km/h
Sensor: Nr:Datum:Temp:Abs-Feuchte:Windchill:Wind:
Aussen-T/F 51 04-12-2016 04:10:00 -2.6 C 3.92 g/m*3 -2.6 C 0 km/h
52 04-12-2016 04:15:00 -2.6 C 3.88 g/m*3 -2.6 C 0 km/h
53 04-12-2016 04:20:00 -2.6 C 3.88 g/m*3 -2.6 C 0 km/h
54 04-12-2016 04:25:00 -2.7 C 3.85 g/m*3 -2.7 C 0 km/h
55 04-12-2016 04:30:00 -2.7 C 3.85 g/m*3 -2.7 C 0 km/h
56 04-12-2016 04:35:00 -2.8 C 3.82 g/m*3 -2.8 C 0 km/h
57 04-12-2016 04:40:00 -2.8 C 3.82 g/m*3 -2.8 C 0 km/h
58 04-12-2016 04:45:00 -2.8 C 3.82 g/m*3 -2.8 C 0 km/h
59 04-12-2016 04:50:00 -2.9 C 3.8 g/m*3 -2.9 C 0 km/h
60 04-12-2016 04:55:00 -3 C 3.77 g/m*3 -3 C 0 km/h
61 04-12-2016 05:00:00 -3.2 C 3.72 g/m*3 -3.2 C 0 km/h
62 04-12-2016 05:05:00 -3.3 C 3.69 g/m*3 -3.3 C 0 km/h
63 04-12-2016 05:10:00 -3.4 C 3.67 g/m*3 -3.4 C 0 km/h
64 04-12-2016 05:15:00 -3.4 C 3.67 g/m*3 -3.4 C 0 km/h
65 04-12-2016 05:20:00 -3.4 C 3.67 g/m*3 -3.4 C 0 km/h
66 04-12-2016 05:25:00 -3.6 C 3.61 g/m*3 -3.6 C 0 km/h
67 04-12-2016 05:30:00 -3.6 C 3.61 g/m*3 -3.6 C 0 km/h
68 04-12-2016 05:35:00 -3.6 C 3.61 g/m*3 -3.6 C 0 km/h
69 04-12-2016 05:40:00 -3.5 C 3.64 g/m*3 -3.5 C 0 km/h
70 04-12-2016 05:45:00 -3.4 C 3.67 g/m*3 -3.4 C 0 km/h
71 04-12-2016 05:50:00 -3.3 C 3.69 g/m*3 -3.3 C 0 km/h
72 04-12-2016 05:55:00 -3.3 C 3.69 g/m*3 -3.3 C 0 km/h
73 04-12-2016 06:00:00 -3.3 C 3.69 g/m*3 -3.3 C 0 km/h
74 04-12-2016 06:05:00 -3.3 C 3.69 g/m*3 -3.3 C 0 km/h
75 04-12-2016 06:10:00 -3.3 C 3.69 g/m*3 -3.3 C 0 km/h
Sensor: Nr:Datum:Temp:Abs-Feuchte:Windchill:Wind:
Aussen-T/F 76 04-12-2016 06:15:00 -3.3 C 3.69 g/m*3 -3.3 C 0 km/h
77 04-12-2016 06:20:00 -3.3 C 3.69 g/m*3 -3.3 C 0 km/h
78 04-12-2016 06:25:00 -3.3 C 3.69 g/m*3 -3.3 C 0 km/h
79 04-12-2016 06:30:00 -3.3 C 3.69 g/m*3 -3.3 C 0 km/h
80 04-12-2016 06:35:00 -3.3 C 3.69 g/m*3 -3.3 C 0 km/h
81 04-12-2016 06:40:00 -3.3 C 3.69 g/m*3 -3.3 C 0 km/h
82 04-12-2016 06:45:00 -3.2 C 3.72 g/m*3 -3.2 C 0 km/h
83 04-12-2016 06:50:00 -3.2 C 3.72 g/m*3 -3.2 C 1.6 km/h
84 04-12-2016 06:55:00 -3.2 C 3.72 g/m*3 -3.2 C 1.6 km/h
85 04-12-2016 07:00:00 -3.2 C 3.72 g/m*3 -3.2 C 0 km/h
86 04-12-2016 07:05:00 -3.3 C 3.69 g/m*3 -3.3 C 0 km/h
87 04-12-2016 07:10:00 -3.3 C 3.69 g/m*3 -3.3 C 0 km/h
88 04-12-2016 07:15:00 -3.3 C 3.69 g/m*3 -3.3 C 0 km/h
89 04-12-2016 07:20:00 -3.4 C 3.67 g/m*3 -3.4 C 0 km/h
90 04-12-2016 07:25:00 -3.5 C 3.64 g/m*3 -3.5 C 0 km/h
91 04-12-2016 07:30:00 -3.5 C 3.64 g/m*3 -3.5 C 0 km/h
92 04-12-2016 07:35:00 -3.6 C 3.61 g/m*3 -3.6 C 0 km/h
93 04-12-2016 07:40:00 -3.6 C 3.61 g/m*3 -3.6 C 0 km/h
94 04-12-2016 07:45:00 -3.6 C 3.61 g/m*3 -3.6 C 0 km/h
95 04-12-2016 07:50:00 -3.6 C 3.61 g/m*3 -3.6 C 0 km/h
96 04-12-2016 07:55:00 -3.6 C 3.61 g/m*3 -3.6 C 0 km/h
97 04-12-2016 08:00:00 -3.6 C 3.61 g/m*3 -3.6 C 0 km/h
98 04-12-2016 08:05:00 -3.6 C 3.61 g/m*3 -3.6 C 0 km/h
99 04-12-2016 08:10:00 -3.6 C 3.61 g/m*3 -3.6 C 0 km/h
100 04-12-2016 08:15:00 -3.6 C 3.61 g/m*3 -3.6 C 0 km/h
Sensor: Nr:Datum:Temp:Abs-Feuchte:Windchill:Wind:
Aussen-T/F 101 04-12-2016 08:20:00 -3.6 C 3.61 g/m*3 -3.6 C 0 km/h
102 04-12-2016 08:25:00 -3.8 C 3.56 g/m*3 -3.8 C 0 km/h
103 04-12-2016 08:30:00 -3.9 C 3.54 g/m*3 -3.9 C 0 km/h
104 04-12-2016 08:35:00 -4 C 3.51 g/m*3 -4 C 0 km/h
105 04-12-2016 08:40:00 -4.1 C 3.49 g/m*3 -4.1 C 0 km/h
106 04-12-2016 08:45:00 -4.2 C 3.46 g/m*3 -4.2 C 0 km/h
107 04-12-2016 08:50:00 -4.3 C 3.4 g/m*3 -4.3 C 0 km/h
108 04-12-2016 08:55:00 -4.3 C 3.4 g/m*3 -4.3 C 0 km/h
109 04-12-2016 09:00:00 -4.4 C 3.38 g/m*3 -4.4 C 0 km/h
110 04-12-2016 09:05:00 -4.4 C 3.38 g/m*3 -4.4 C 0 km/h
111 04-12-2016 09:10:00 -4.4 C 3.38 g/m*3 -4.4 C 0 km/h
112 04-12-2016 09:15:00 -4.4 C 3.38 g/m*3 -4.4 C 0 km/h
113 04-12-2016 09:20:00 -4.5 C 3.35 g/m*3 -4.5 C 0 km/h
114 04-12-2016 09:25:00 -4.5 C 3.35 g/m*3 -4.5 C 0 km/h
115 04-12-2016 09:30:00 -4.5 C 3.35 g/m*3 -4.5 C 0 km/h
116 04-12-2016 09:35:00 -4.5 C 3.35 g/m*3 -4.5 C 0 km/h
117 04-12-2016 09:40:00 -4.4 C 3.38 g/m*3 -4.4 C 0 km/h
118 04-12-2016 09:45:00 -4.3 C 3.44 g/m*3 -4.3 C 0 km/h
119 04-12-2016 09:50:00 -4.2 C 3.46 g/m*3 -4.2 C 1.6 km/h
120 04-12-2016 09:55:00 -4.1 C 3.49 g/m*3 -4.1 C 0 km/h
121 04-12-2016 10:00:00 -3.9 C 3.54 g/m*3 -3.9 C 0 km/h
122 04-12-2016 10:05:00 -3.9 C 3.54 g/m*3 -3.9 C 0 km/h
123 04-12-2016 10:10:00 -3.8 C 3.56 g/m*3 -3.8 C 0 km/h
124 04-12-2016 10:15:00 -3.7 C 3.59 g/m*3 -3.7 C 0 km/h
125 04-12-2016 10:20:00 -3.6 C 3.61 g/m*3 -3.6 C 0 km/h
Sensor: Nr:Datum:Temp:Abs-Feuchte:Windchill:Wind:
Aussen-T/F 126 04-12-2016 10:25:00 -3.5 C 3.64 g/m*3 -3.5 C 0 km/h
127 04-12-2016 10:30:00 -3.4 C 3.67 g/m*3 -3.4 C 0 km/h
128 04-12-2016 10:35:00 -3.4 C 3.67 g/m*3 -3.4 C 0 km/h
129 04-12-2016 10:40:00 -3.3 C 3.69 g/m*3 -3.3 C 0 km/h
130 04-12-2016 10:45:00 -3.3 C 3.69 g/m*3 -3.3 C 0 km/h
131 04-12-2016 10:50:00 -3.2 C 3.72 g/m*3 -3.2 C 0 km/h
132 04-12-2016 10:55:00 -3.2 C 3.72 g/m*3 -3.2 C 0 km/h
133 04-12-2016 11:00:00 -3.1 C 3.74 g/m*3 -3.1 C 0 km/h
134 04-12-2016 11:05:00 -3.1 C 3.74 g/m*3 -3.1 C 0 km/h
135 04-12-2016 11:10:00 -3 C 3.77 g/m*3 -3 C 0 km/h
136 04-12-2016 11:15:00 -2.9 C 3.8 g/m*3 -2.9 C 1.6 km/h
137 04-12-2016 11:20:00 -2.9 C 3.8 g/m*3 -2.9 C 0 km/h
138 04-12-2016 11:25:00 -2.8 C 3.82 g/m*3 -2.8 C 0 km/h
139 04-12-2016 11:30:00 -2.7 C 3.85 g/m*3 -2.7 C 0 km/h
140 04-12-2016 11:35:00 -2.7 C 3.85 g/m*3 -2.7 C 1.6 km/h
141 04-12-2016 11:40:00 -2.6 C 3.88 g/m*3 -2.6 C 1.6 km/h
142 04-12-2016 11:45:00 -2.6 C 3.92 g/m*3 -2.6 C 0 km/h
143 04-12-2016 11:50:00 -2.5 C 3.95 g/m*3 -2.5 C 1.6 km/h
144 04-12-2016 11:55:00 -2.4 C 3.98 g/m*3 -2.4 C 1.6 km/h
145 04-12-2016 12:00:00 -2.4 C 3.93 g/m*3 -2.4 C 1.6 km/h
146 04-12-2016 12:05:00 -2.3 C 3.96 g/m*3 -2.3 C 1.6 km/h
147 04-12-2016 12:10:00 -2.2 C 3.99 g/m*3 -2.2 C 0 km/h
148 04-12-2016 12:15:00 -2.2 C 4.03 g/m*3 -2.2 C 3.2 km/h
149 04-12-2016 12:20:00 -2.1 C 4.06 g/m*3 -2.1 C 0 km/h
150 04-12-2016 12:25:00 -2.1 C 4.06 g/m*3 -2.1 C 1.6 km/h
Sensor: Nr:Datum:Temp:Abs-Feuchte:Windchill:Wind:
Aussen-T/F 151 04-12-2016 12:30:00 -1.9 C 4.12 g/m*3 -1.9 C 3.2 km/h
152 04-12-2016 12:35:00 -1.9 C 4.12 g/m*3 -1.9 C 1.6 km/h
153 04-12-2016 12:40:00 -1.8 C 4.15 g/m*3 -1.8 C 3.2 km/h
154 04-12-2016 12:45:00 -1.8 C 4.15 g/m*3 -1.8 C 3.2 km/h
155 04-12-2016 12:50:00 -1.7 C 4.18 g/m*3 -1.7 C 1.6 km/h
156 04-12-2016 12:55:00 -1.7 C 4.18 g/m*3 -1.7 C 3.2 km/h
157 04-12-2016 13:00:00 -1.6 C 4.21 g/m*3 -1.6 C 3.2 km/h
158 04-12-2016 13:05:00 -1.6 C 4.21 g/m*3 -1.6 C 4.8 km/h
159 04-12-2016 13:10:00 -1.5 C 4.23 g/m*3 -1.5 C 4.8 km/h
160 04-12-2016 13:15:00 -1.4 C 4.26 g/m*3 -1.4 C 3.2 km/h
161 04-12-2016 13:20:00 -1.3 C 4.29 g/m*3 -1.3 C 4.8 km/h
162 04-12-2016 13:25:00 -1.3 C 4.29 g/m*3 -1.3 C 3.2 km/h
163 04-12-2016 13:30:00 -1.3 C 4.29 g/m*3 -1.3 C 3.2 km/h
164 04-12-2016 13:35:00 -1.2 C 4.32 g/m*3 -1.2 C 3.2 km/h
165 04-12-2016 13:40:00 -1.2 C 4.32 g/m*3 -1.2 C 3.2 km/h
166 04-12-2016 13:45:00 -1.2 C 4.32 g/m*3 -1.2 C 3.2 km/h
167 04-12-2016 13:50:00 -1.1 C 4.35 g/m*3 -1.1 C 3.2 km/h
168 04-12-2016 13:55:00 -1 C 4.38 g/m*3 -1 C 3.2 km/h
169 04-12-2016 14:00:00 -0.9 C 4.42 g/m*3 -0.9 C 3.2 km/h
170 04-12-2016 14:05:00 -0.9 C 4.42 g/m*3 -0.9 C 3.2 km/h
171 04-12-2016 14:10:00 -0.8 C 4.45 g/m*3 -0.8 C 4.8 km/h
172 04-12-2016 14:15:00 -0.8 C 4.45 g/m*3 -0.8 C 4.8 km/h
173 04-12-2016 14:20:00 -0.8 C 4.45 g/m*3 -0.8 C 4.8 km/h
174 04-12-2016 14:25:00 -0.7 C 4.48 g/m*3 -0.7 C 4.8 km/h
175 04-12-2016 14:30:00 -0.7 C 4.48 g/m*3 -0.7 C 4.8 km/h
Sensor: Nr:Datum:Temp:Abs-Feuchte:Windchill:Wind:
Aussen-T/F 176 04-12-2016 14:35:00 -0.7 C 4.48 g/m*3 -0.7 C 4.8 km/h
177 04-12-2016 14:40:00 -0.6 C 4.51 g/m*3 -0.6 C 4.8 km/h
178 04-12-2016 14:45:00 -0.6 C 4.51 g/m*3 -0.6 C 4.8 km/h
179 04-12-2016 14:50:00 -0.6 C 4.51 g/m*3 -0.6 C 4.8 km/h
180 04-12-2016 14:55:00 -0.6 C 4.51 g/m*3 -0.6 C 4.8 km/h
181 04-12-2016 15:00:00 -0.6 C 4.51 g/m*3 -0.6 C 4.8 km/h
182 04-12-2016 15:05:00 -0.5 C 4.54 g/m*3 -0.5 C 4.8 km/h
183 04-12-2016 15:10:00 -0.5 C 4.54 g/m*3 -0.5 C 4.8 km/h
184 04-12-2016 15:15:00 -0.5 C 4.54 g/m*3 -0.5 C 4.8 km/h
185 04-12-2016 15:20:00 -0.5 C 4.54 g/m*3 -0.5 C 4.8 km/h
186 04-12-2016 15:25:00 -0.4 C 4.57 g/m*3 -2.64 C 6.4 km/h
187 04-12-2016 15:30:00 -0.4 C 4.57 g/m*3 -2.64 C 6.4 km/h
188 04-12-2016 15:35:00 -0.4 C 4.57 g/m*3 -2.64 C 6.4 km/h
189 04-12-2016 15:40:00 -0.4 C 4.57 g/m*3 -0.4 C 4.8 km/h
190 04-12-2016 15:45:00 -0.4 C 4.57 g/m*3 -2.64 C 6.4 km/h
191 04-12-2016 15:50:00 -0.4 C 4.57 g/m*3 -2.64 C 6.4 km/h
192 04-12-2016 15:55:00 -0.4 C 4.57 g/m*3 -3.24 C 8.1 km/h
193 04-12-2016 16:00:00 -0.5 C 4.54 g/m*3 -2.76 C 6.4 km/h
194 04-12-2016 16:05:00 -0.5 C 4.54 g/m*3 -2.76 C 6.4 km/h
195 04-12-2016 16:10:00 -0.6 C 4.51 g/m*3 -2.88 C 6.4 km/h
196 04-12-2016 16:15:00 -0.6 C 4.51 g/m*3 -3.48 C 8.1 km/h
197 04-12-2016 16:20:00 -0.7 C 4.48 g/m*3 -0.7 C 4.8 km/h
198 04-12-2016 16:25:00 -0.8 C 4.45 g/m*3 -3.11 C 6.4 km/h
199 04-12-2016 16:30:00 -0.9 C 4.42 g/m*3 -0.9 C 4.8 km/h
200 04-12-2016 16:35:00 -0.9 C 4.42 g/m*3 -3.22 C 6.4 km/h
Sensor: Nr:Datum:Temp:Abs-Feuchte:Windchill:Wind:
Aussen-T/F 201 04-12-2016 16:40:00 -1 C 4.38 g/m*3 -3.34 C 6.4 km/h
202 04-12-2016 16:45:00 -1 C 4.38 g/m*3 -3.34 C 6.4 km/h
203 04-12-2016 16:50:00 -1.1 C 4.35 g/m*3 -3.45 C 6.4 km/h
204 04-12-2016 16:55:00 -1.1 C 4.35 g/m*3 -3.45 C 6.4 km/h
205 04-12-2016 17:00:00 -1.1 C 4.35 g/m*3 -3.45 C 6.4 km/h
206 04-12-2016 17:05:00 -1.1 C 4.35 g/m*3 -3.45 C 6.4 km/h
207 04-12-2016 17:10:00 -1.1 C 4.35 g/m*3 -3.45 C 6.4 km/h
208 04-12-2016 17:15:00 -1.1 C 4.35 g/m*3 -3.45 C 6.4 km/h
209 04-12-2016 17:20:00 -1.1 C 4.35 g/m*3 -3.45 C 6.4 km/h
210 04-12-2016 17:25:00 -1.1 C 4.35 g/m*3 -3.45 C 6.4 km/h
211 04-12-2016 17:30:00 -1.1 C 4.35 g/m*3 -3.45 C 6.4 km/h
212 04-12-2016 17:35:00 -1.2 C 4.32 g/m*3 -1.2 C 4.8 km/h
213 04-12-2016 17:40:00 -1.2 C 4.32 g/m*3 -1.2 C 4.8 km/h
214 04-12-2016 17:45:00 -1.2 C 4.32 g/m*3 -1.2 C 4.8 km/h
215 04-12-2016 17:50:00 -1.3 C 4.29 g/m*3 -1.3 C 4.8 km/h
216 04-12-2016 17:55:00 -1.3 C 4.29 g/m*3 -1.3 C 4.8 km/h
217 04-12-2016 18:00:00 -1.3 C 4.25 g/m*3 -1.3 C 4.8 km/h
218 04-12-2016 18:05:00 -1.4 C 4.22 g/m*3 -1.4 C 3.2 km/h
219 04-12-2016 18:10:00 -1.4 C 4.22 g/m*3 -1.4 C 3.2 km/h
220 04-12-2016 18:15:00 -1.5 C 4.19 g/m*3 -1.5 C 3.2 km/h
221 04-12-2016 18:20:00 -1.6 C 4.16 g/m*3 -1.6 C 3.2 km/h
222 04-12-2016 18:25:00 -1.6 C 4.16 g/m*3 -1.6 C 3.2 km/h
223 04-12-2016 18:30:00 -1.7 C 4.13 g/m*3 -1.7 C 3.2 km/h
224 04-12-2016 18:35:00 -1.7 C 4.13 g/m*3 -1.7 C 4.8 km/h
225 04-12-2016 18:40:00 -1.7 C 4.13 g/m*3 -1.7 C 4.8 km/h
Sensor: Nr:Datum:Temp:Abs-Feuchte:Windchill:Wind:
Aussen-T/F 226 04-12-2016 18:45:00 -1.7 C 4.13 g/m*3 -1.7 C 1.6 km/h
227 04-12-2016 18:50:00 -1.8 C 4.1 g/m*3 -1.8 C 1.6 km/h
228 04-12-2016 18:55:00 -1.8 C 4.1 g/m*3 -1.8 C 1.6 km/h
229 04-12-2016 19:00:00 -2 C 4.05 g/m*3 -2 C 0 km/h
230 04-12-2016 19:05:00 -2.2 C 3.99 g/m*3 -2.2 C 0 km/h
231 04-12-2016 19:10:00 -2.3 C 3.96 g/m*3 -2.3 C 3.2 km/h
232 04-12-2016 19:15:00 -2.2 C 3.99 g/m*3 -2.2 C 3.2 km/h
233 04-12-2016 19:20:00 -2.2 C 3.99 g/m*3 -2.2 C 3.2 km/h
234 04-12-2016 19:25:00 -2.2 C 3.99 g/m*3 -2.2 C 3.2 km/h
235 04-12-2016 19:30:00 -2.2 C 3.99 g/m*3 -2.2 C 0 km/h
236 04-12-2016 19:35:00 -2.2 C 3.99 g/m*3 -2.2 C 0 km/h
237 04-12-2016 19:40:00 -2.2 C 3.99 g/m*3 -2.2 C 0 km/h
238 04-12-2016 19:45:00 -2.3 C 3.96 g/m*3 -2.3 C 0 km/h
239 04-12-2016 19:50:00 -2.3 C 3.96 g/m*3 -2.3 C 0 km/h
240 04-12-2016 19:55:00 -2.4 C 3.93 g/m*3 -2.4 C 0 km/h
241 04-12-2016 20:00:00 -2.6 C 3.88 g/m*3 -2.6 C 0 km/h
242 04-12-2016 20:05:00 -2.6 C 3.88 g/m*3 -2.6 C 3.2 km/h
243 04-12-2016 20:10:00 -2.6 C 3.88 g/m*3 -2.6 C 3.2 km/h
244 04-12-2016 20:15:00 -2.7 C 3.85 g/m*3 -2.7 C 3.2 km/h
245 04-12-2016 20:20:00 -2.7 C 3.85 g/m*3 -2.7 C 3.2 km/h
246 04-12-2016 20:25:00 -2.7 C 3.85 g/m*3 -2.7 C 1.6 km/h
247 04-12-2016 20:30:00 -2.8 C 3.82 g/m*3 -2.8 C 0 km/h
248 04-12-2016 20:35:00 -2.9 C 3.76 g/m*3 -2.9 C 0 km/h
249 04-12-2016 20:40:00 -3 C 3.73 g/m*3 -3 C 0 km/h
250 04-12-2016 20:45:00 -3.1 C 3.74 g/m*3 -3.1 C 0 km/h
Sensor: Nr:Datum:Temp:Abs-Feuchte:Windchill:Wind:
Aussen-T/F 251 04-12-2016 20:50:00 -3.1 C 3.74 g/m*3 -3.1 C 0 km/h
252 04-12-2016 20:55:00 -3.2 C 3.72 g/m*3 -3.2 C 0 km/h
253 04-12-2016 21:00:00 -3.2 C 3.72 g/m*3 -3.2 C 0 km/h
254 04-12-2016 21:05:00 -3.2 C 3.68 g/m*3 -3.2 C 0 km/h
255 04-12-2016 21:10:00 -3.3 C 3.65 g/m*3 -3.3 C 0 km/h
256 04-12-2016 21:15:00 -3.5 C 3.6 g/m*3 -3.5 C 0 km/h
257 04-12-2016 21:20:00 -3.6 C 3.58 g/m*3 -3.6 C 0 km/h
258 04-12-2016 21:25:00 -3.6 C 3.58 g/m*3 -3.6 C 0 km/h
259 04-12-2016 21:30:00 -3.7 C 3.55 g/m*3 -3.7 C 0 km/h
260 04-12-2016 21:35:00 -3.6 C 3.58 g/m*3 -3.6 C 0 km/h
261 04-12-2016 21:40:00 -3.6 C 3.61 g/m*3 -3.6 C 0 km/h
262 04-12-2016 21:45:00 -3.6 C 3.58 g/m*3 -3.6 C 0 km/h
263 04-12-2016 21:50:00 -3.6 C 3.61 g/m*3 -3.6 C 0 km/h
264 04-12-2016 21:55:00 -3.8 C 3.53 g/m*3 -3.8 C 0 km/h
265 04-12-2016 22:00:00 -3.8 C 3.53 g/m*3 -3.8 C 0 km/h
266 04-12-2016 22:05:00 -3.8 C 3.53 g/m*3 -3.8 C 0 km/h
267 04-12-2016 22:10:00 -3.8 C 3.53 g/m*3 -3.8 C 0 km/h
268 04-12-2016 22:15:00 -3.9 C 3.5 g/m*3 -3.9 C 0 km/h
269 04-12-2016 22:20:00 -3.9 C 3.5 g/m*3 -3.9 C 0 km/h
270 04-12-2016 22:25:00 -3.9 C 3.5 g/m*3 -3.9 C 0 km/h
271 04-12-2016 22:30:00 -4 C 3.48 g/m*3 -4 C 0 km/h
272 04-12-2016 22:35:00 -4.1 C 3.45 g/m*3 -4.1 C 0 km/h
273 04-12-2016 22:40:00 -4.1 C 3.45 g/m*3 -4.1 C 0 km/h
274 04-12-2016 22:45:00 -4.2 C 3.43 g/m*3 -4.2 C 0 km/h
275 04-12-2016 22:50:00 -4.2 C 3.43 g/m*3 -4.2 C 0 km/h
Sensor: Nr:Datum:Temp:Abs-Feuchte:Windchill:Wind:
Aussen-T/F 276 04-12-2016 22:55:00 -4.2 C 3.43 g/m*3 -4.2 C 0 km/h
277 04-12-2016 23:00:00 -4.2 C 3.43 g/m*3 -4.2 C 0 km/h
278 04-12-2016 23:05:00 -4.3 C 3.4 g/m*3 -4.3 C 0 km/h
279 04-12-2016 23:10:00 -4.4 C 3.38 g/m*3 -4.4 C 0 km/h
280 04-12-2016 23:15:00 -4.4 C 3.38 g/m*3 -4.4 C 0 km/h
281 04-12-2016 23:20:00 -4.5 C 3.35 g/m*3 -4.5 C 0 km/h
282 04-12-2016 23:25:00 -4.5 C 3.35 g/m*3 -4.5 C 0 km/h
283 04-12-2016 23:30:00 -4.5 C 3.35 g/m*3 -4.5 C 0 km/h
284 04-12-2016 23:35:00 -4.6 C 3.33 g/m*3 -4.6 C 0 km/h
285 04-12-2016 23:40:00 -4.6 C 3.33 g/m*3 -4.6 C 0 km/h
286 04-12-2016 23:45:00 -4.6 C 3.33 g/m*3 -4.6 C 0 km/h
287 04-12-2016 23:50:00 -4.5 C 3.35 g/m*3 -4.5 C 0 km/h
288 04-12-2016 23:55:00 -4.6 C 3.33 g/m*3 -4.6 C 0 km/h

Legende:
   Min
   Max


Maximal/Minimal-Werte vom 04.12.2016 - 04.12.2016

Sensor Min Max Avg
Temp
(Aussen-T/F)
-4.6 °C
04-12-2016  23:35:00
-0.4 °C
04-12-2016  15:25:00
-2.61 °C
Abs-Feuchte
(Aussen-T/F)
3.33 g/m*3
04-12-2016  23:35:00
4.57 g/m*3
04-12-2016  15:25:00
3.88 g/m*3
Windchill
(Aussen-T/F)
-4.6 C
04-12-2016  23:35:00
-0.4 C
04-12-2016  15:40:00
-2.79 C

Die Daten stammen von einer Davis Vantage Pro 2 Wetter-Station und werden unter Linux mit der Software wview2wettercgi und aufbereitet. Alle Angaben erfolgen ohne Gewähr für ihre Vollständigkeit oder Richtigkeit.
Kontakt: Rainer Krienke krienke@uni-koblenz.de . Meine Webseiten an der Uni Koblenz oder privat.
Version: $Revision: 0.78 $